Weather at Val-d'Or Airport

Public forecast

Using degrees Celsius for public forecast. Weather courtesy of forecast.io.

Current aviation weather report (METAR) for Val-d'Or Airport

Retrieved 2021/03/03 00:00 UTC (1 hour ago):

CYVO 030000Z 16008KT 1 3/4SM -SN OVC018 M10/M11 A2980 RMK SN6NS2 SLP129

Aviation forecast (TAF) for Val-d'Or Airport

Forecast is more than 6 hours old.

Retrieved 2021/03/02 18:00 UTC (7 hours ago):

TAF CYVO 021741Z 0218/0306 26008KT P6SM FEW100 SCT240 FM022200 20008KT P6SM SCT050 OVC080 TEMPO 0222/0223 2SM -SN BKN020 OVC040 FM022300 19008KT 11/2SM -SN OVC015 TEMPO 0223/0301 21/2SM -SN SCT015 OVC030 FM030100 17007KT 1SM -SN OVC012 FM030500 18006KT 21/2SM -SN OVC030 PROB30 0305/0306 11/2SM -SN OVC020 RMK NXT FCST BY 030000Z